KISO

Kinston Regional Jetport at Stallings Field Airport

Kinston, North Carolina, USA
METAR KISO 160156Z 00000KT 4SM BR OVC004 13/13 A2995
Observed Flight Rules
Dec-16 @ 01:56 UTC (14 minutes ago) Instrument Flight Rules
Visibility Clouds Conditions
4 miles
  • Overcast at 400' AGL
  • Mist
Temperatures Readings
Current 13°C / 55°F
Dewpoint 13°C / 55°F
Humidity 100%
Altimeter 29.95" Hg
Pressure 1014 hPa
Elevation 29
METAR KISO 160156Z 00000KT 4SM BR OVC004 13/13 A2995
Observed Flight Rules
Dec-16 @ 01:56 UTC
(14 minutes ago)
LIFR
Clouds
  • Overcast at 400' AGL
Conditions
  • Mist
Temperature Dewpoint
13°C / 55°F 13°C / 55°F
Humidity Altimeter Pressure
100% 29.95" Hg 1014 hPa